createdAt,value
2023-09-25T00:00:35.858Z,98506.34
2023-09-25T00:03:04.952Z,98494.41
2023-09-25T00:05:31.890Z,98495.72
2023-09-25T00:07:58.945Z,98489.66
2023-09-25T00:10:25.791Z,98488.38
2023-09-25T00:12:52.596Z,98484.56
2023-09-25T00:15:19.680Z,98488.72
2023-09-25T00:17:46.521Z,98484.69
2023-09-25T00:20:13.787Z,98491.25
2023-09-25T00:22:41.115Z,98486.25
2023-09-25T00:25:08.556Z,98487.19
2023-09-25T00:27:35.737Z,98484.69
2023-09-25T00:30:06.882Z,98485.91
2023-09-25T00:32:34.361Z,98475.53
2023-09-25T00:35:01.201Z,98473.84
2023-09-25T00:37:28.345Z,98484.31
2023-09-25T00:39:56.149Z,98480.06
2023-09-25T00:42:22.933Z,98480.56
2023-09-25T00:44:49.679Z,98481.97
2023-09-25T00:47:16.417Z,98482.72
2023-09-25T00:49:43.063Z,98475.91
2023-09-25T00:52:10.427Z,98489.63
2023-09-25T00:54:41.850Z,98484.34
2023-09-25T00:57:10.244Z,98474.50
2023-09-25T00:59:40.679Z,98480.31
2023-09-25T01:02:07.662Z,98471.03
2023-09-25T01:04:34.748Z,98477.69
2023-09-25T01:07:02.139Z,98478.44
2023-09-25T01:09:29.116Z,98472.81
2023-09-25T01:11:55.918Z,98478.81
2023-09-25T01:14:22.675Z,98481.16
2023-09-25T01:16:49.546Z,98484.28
2023-09-25T01:19:16.277Z,98488.09
2023-09-25T01:21:49.093Z,98485.34
2023-09-25T01:24:16.030Z,98486.25
2023-09-25T01:26:42.697Z,98486.41
2023-09-25T01:29:09.416Z,98489.63
2023-09-25T01:31:36.046Z,98495.31
2023-09-25T01:34:02.894Z,98495.44
2023-09-25T01:36:29.590Z,98504.38
2023-09-25T01:38:56.360Z,98502.97
2023-09-25T01:41:23.403Z,98503.56
2023-09-25T01:43:50.018Z,98500.81
2023-09-25T01:46:16.663Z,98499.75
2023-09-25T01:48:43.355Z,98497.72
2023-09-25T01:51:11.594Z,98502.72
2023-09-25T01:53:38.820Z,98496.16
2023-09-25T01:56:15.360Z,98495.81
2023-09-25T01:58:43.619Z,98498.06
2023-09-25T02:01:10.883Z,98489.00
2023-09-25T02:03:38.074Z,98504.03
2023-09-25T02:06:05.852Z,98500.56
2023-09-25T02:08:32.801Z,98503.56
2023-09-25T02:10:59.908Z,98506.56
2023-09-25T02:13:27.184Z,98507.47
2023-09-25T02:15:54.995Z,98511.06
2023-09-25T02:18:22.265Z,98512.22
2023-09-25T02:20:48.950Z,98513.41
2023-09-25T02:23:15.605Z,98512.13
2023-09-25T02:25:42.243Z,98520.72
2023-09-25T02:28:09.543Z,98529.66
2023-09-25T02:30:36.258Z,98522.84
2023-09-25T02:33:04.103Z,98518.69
2023-09-25T02:35:30.874Z,98522.00
2023-09-25T02:37:57.507Z,98518.56
2023-09-25T02:40:24.126Z,98521.91
2023-09-25T02:42:51.391Z,98526.19
2023-09-25T02:45:18.652Z,98524.88
2023-09-25T02:47:45.776Z,98529.78
2023-09-25T02:50:12.971Z,98529.13
2023-09-25T02:52:39.706Z,98525.47
2023-09-25T02:55:06.652Z,98527.94
2023-09-25T02:57:33.350Z,98524.97
2023-09-25T03:00:00.044Z,98519.22
2023-09-25T03:02:27.441Z,98523.41
2023-09-25T03:04:55.205Z,98520.31
2023-09-25T03:07:22.201Z,98521.00
2023-09-25T03:09:49.012Z,98531.81
2023-09-25T03:12:15.755Z,98528.16
2023-09-25T03:14:42.422Z,98534.00
2023-09-25T03:17:09.062Z,98538.31
2023-09-25T03:19:36.867Z,98540.44
2023-09-25T03:22:06.541Z,98547.03
2023-09-25T03:24:33.314Z,98543.78
2023-09-25T03:27:00.101Z,98549.78
2023-09-25T03:29:26.824Z,98544.28
2023-09-25T03:31:53.493Z,98559.41
2023-09-25T03:34:21.594Z,98547.03
2023-09-25T03:36:48.392Z,98556.44
2023-09-25T03:39:15.636Z,98562.75
2023-09-25T03:41:42.320Z,98554.44
2023-09-25T03:44:09.021Z,98568.50
2023-09-25T03:46:35.758Z,98556.56
2023-09-25T03:49:07.192Z,98562.88
2023-09-25T03:51:34.549Z,98565.72
2023-09-25T03:54:01.625Z,98563.00
2023-09-25T03:56:30.477Z,98563.56
2023-09-25T03:58:57.333Z,98571.56
2023-09-25T04:01:24.144Z,98575.38
2023-09-25T04:03:51.282Z,98577.38
2023-09-25T04:06:19.638Z,98581.41
2023-09-25T04:08:46.621Z,98568.78
2023-09-25T04:11:13.337Z,98573.19
2023-09-25T04:13:42.676Z,98567.78
2023-09-25T04:16:13.393Z,98575.38
2023-09-25T04:18:40.999Z,98574.16
2023-09-25T04:21:07.930Z,98580.81
2023-09-25T04:23:34.791Z,98582.50
2023-09-25T04:26:02.108Z,98580.91
2023-09-25T04:28:33.780Z,98576.50
2023-09-25T04:31:05.770Z,98584.25
2023-09-25T04:33:34.084Z,98581.50
2023-09-25T04:36:02.515Z,98588.66
2023-09-25T04:38:32.859Z,98588.66
2023-09-25T04:40:59.502Z,98591.66
2023-09-25T04:43:26.100Z,98596.56
2023-09-25T04:45:53.492Z,98591.22
2023-09-25T04:48:20.753Z,98591.66
2023-09-25T04:50:47.573Z,98590.00
2023-09-25T04:53:14.909Z,98593.56
2023-09-25T04:55:42.164Z,98591.16
2023-09-25T04:58:09.850Z,98592.00
2023-09-25T05:00:36.699Z,98599.06
2023-09-25T05:03:03.670Z,98597.97
2023-09-25T05:05:31.227Z,98593.91
2023-09-25T05:07:58.228Z,98594.25
2023-09-25T05:10:27.510Z,98597.34
2023-09-25T05:12:55.878Z,98601.88
2023-09-25T05:15:23.344Z,98597.34
2023-09-25T05:17:50.451Z,98601.94
2023-09-25T05:20:19.885Z,98608.06
2023-09-25T05:22:52.226Z,98597.41
2023-09-25T05:25:20.318Z,98605.38
2023-09-25T05:27:52.590Z,98609.22
2023-09-25T05:30:20.343Z,98594.66
2023-09-25T05:32:51.758Z,98603.97
2023-09-25T05:35:20.358Z,98599.97
2023-09-25T05:37:49.518Z,98595.41
2023-09-25T05:40:18.167Z,98602.06
2023-09-25T05:42:47.090Z,98607.91
2023-09-25T05:45:15.333Z,98604.16
2023-09-25T05:47:42.920Z,98612.75
2023-09-25T05:50:10.143Z,98618.91
2023-09-25T05:52:38.278Z,98616.72
2023-09-25T05:55:06.514Z,98622.75
2023-09-25T05:57:33.689Z,98623.06
2023-09-25T06:00:13.798Z,98622.00
2023-09-25T06:02:42.154Z,98624.00
2023-09-25T06:05:10.362Z,98622.50
2023-09-25T06:07:37.034Z,98629.31
2023-09-25T06:10:05.459Z,98639.25
2023-09-25T06:12:32.829Z,98647.88
2023-09-25T06:14:59.579Z,98647.06
2023-09-25T06:17:28.214Z,98639.97
2023-09-25T06:19:55.705Z,98646.88
2023-09-25T06:22:22.958Z,98654.53
2023-09-25T06:24:52.484Z,98642.03
2023-09-25T06:27:19.293Z,98641.84
2023-09-25T06:29:46.005Z,98651.31
2023-09-25T06:32:12.928Z,98647.59
2023-09-25T06:34:40.645Z,98655.28
2023-09-25T06:37:07.911Z,98661.81
2023-09-25T06:39:35.022Z,98651.44
2023-09-25T06:42:01.767Z,98660.84
2023-09-25T06:44:28.679Z,98660.06
2023-09-25T06:46:55.452Z,98673.53
2023-09-25T06:49:23.529Z,98661.81
2023-09-25T06:51:50.535Z,98666.16
2023-09-25T06:54:17.454Z,98677.28
2023-09-25T06:56:44.185Z,98679.28
2023-09-25T06:59:10.784Z,98671.81
2023-09-25T07:01:37.553Z,98676.06
2023-09-25T07:04:04.493Z,98680.03
2023-09-25T07:06:31.547Z,98676.75
2023-09-25T07:08:58.591Z,98677.94
2023-09-25T07:11:25.273Z,98675.72
2023-09-25T07:13:51.945Z,98677.19
2023-09-25T07:16:18.724Z,98676.69
2023-09-25T07:18:47.660Z,98679.66
2023-09-25T07:21:16.696Z,98681.69
2023-09-25T07:23:43.537Z,98682.00
2023-09-25T07:26:10.558Z,98679.38
2023-09-25T07:28:38.083Z,98682.31
2023-09-25T07:31:07.011Z,98667.22
2023-09-25T07:33:36.000Z,98675.59
2023-09-25T07:36:06.778Z,98682.72
2023-09-25T07:38:34.800Z,98679.38
2023-09-25T07:41:02.924Z,98672.47
2023-09-25T07:46:02.729Z,98684.66
2023-09-25T07:48:32.006Z,98688.81
2023-09-25T07:50:59.845Z,98674.16
2023-09-25T07:53:29.534Z,98681.06
2023-09-25T07:55:56.466Z,98683.28
2023-09-25T07:58:23.515Z,98673.03
2023-09-25T08:00:52.054Z,98664.75
2023-09-25T08:03:23.613Z,98670.56
2023-09-25T08:05:50.654Z,98672.59
2023-09-25T08:08:17.492Z,98672.31
2023-09-25T08:10:46.749Z,98672.88
2023-09-25T08:13:15.825Z,98663.22
2023-09-25T08:15:43.094Z,98664.88
2023-09-25T08:18:09.875Z,98662.72
2023-09-25T08:20:36.989Z,98663.78
2023-09-25T08:23:04.278Z,98659.66
2023-09-25T08:25:31.855Z,98656.34
2023-09-25T08:27:58.946Z,98648.59
2023-09-25T08:30:25.951Z,98655.25
2023-09-25T08:32:54.937Z,98662.44
2023-09-25T08:35:22.000Z,98667.97
2023-09-25T08:37:49.145Z,98664.06
2023-09-25T08:40:16.383Z,98664.09
2023-09-25T08:42:44.284Z,98665.47
2023-09-25T08:45:11.209Z,98659.66
2023-09-25T08:47:40.103Z,98655.75
2023-09-25T08:50:09.926Z,98656.03
2023-09-25T08:52:37.089Z,98661.56
2023-09-25T08:55:05.432Z,98664.56
2023-09-25T08:57:32.266Z,98660.97
2023-09-25T09:00:05.411Z,98658.44
2023-09-25T09:02:32.128Z,98649.78
2023-09-25T09:04:59.703Z,98650.28
2023-09-25T09:07:26.896Z,98654.66
2023-09-25T09:09:53.627Z,98653.78
2023-09-25T09:12:20.396Z,98660.97
2023-09-25T09:14:47.659Z,98655.31
2023-09-25T09:17:14.415Z,98649.97
2023-09-25T09:19:47.111Z,98647.91
2023-09-25T09:22:18.437Z,98651.50
2023-09-25T09:24:46.120Z,98645.38
2023-09-25T09:27:15.533Z,98653.13
2023-09-25T09:29:44.619Z,98645.88
2023-09-25T09:32:12.840Z,98646.47
2023-09-25T09:34:42.925Z,98648.44
2023-09-25T09:37:10.118Z,98641.78
2023-09-25T09:39:38.114Z,98652.72
2023-09-25T09:42:09.548Z,98646.94
2023-09-25T09:44:37.136Z,98650.19
2023-09-25T09:47:06.792Z,98647.13
2023-09-25T09:49:36.976Z,98647.97
2023-09-25T09:52:05.102Z,98652.84
2023-09-25T09:54:36.631Z,98640.94
2023-09-25T09:57:04.025Z,98639.91
2023-09-25T09:59:30.757Z,98642.91
2023-09-25T10:01:58.945Z,98648.25
2023-09-25T10:04:27.897Z,98639.28
2023-09-25T10:07:00.824Z,98642.16
2023-09-25T10:09:28.517Z,98639.28
2023-09-25T10:11:57.187Z,98641.34
2023-09-25T10:14:25.704Z,98628.59
2023-09-25T10:17:04.852Z,98632.47
2023-09-25T10:19:54.296Z,98625.72
2023-09-25T10:22:23.667Z,98618.84
2023-09-25T10:25:05.728Z,98633.28
2023-09-25T10:27:33.405Z,98618.69
2023-09-25T10:30:15.591Z,98618.56
2023-09-25T10:32:50.450Z,98607.38
2023-09-25T10:35:53.362Z,98616.31
2023-09-25T10:38:31.849Z,98614.22
2023-09-25T10:41:05.521Z,98606.34
2023-09-25T10:43:33.005Z,98607.44
2023-09-25T10:46:00.277Z,98601.81
2023-09-25T10:48:31.047Z,98608.94
2023-09-25T10:50:57.788Z,98598.25
2023-09-25T10:53:24.470Z,98609.59
2023-09-25T10:55:51.166Z,98610.38
2023-09-25T10:58:19.286Z,98602.69
2023-09-25T11:00:48.010Z,98589.84
2023-09-25T11:03:14.927Z,98600.06
2023-09-25T11:05:41.986Z,98592.19
2023-09-25T11:08:16.793Z,98588.84
2023-09-25T11:10:44.796Z,98597.34
2023-09-25T11:13:12.845Z,98588.56
2023-09-25T11:15:41.325Z,98588.25
2023-09-25T11:18:09.876Z,98578.81
2023-09-25T11:20:38.984Z,98584.91
2023-09-25T11:23:20.145Z,98575.78
2023-09-25T11:25:52.653Z,98586.63
2023-09-25T11:28:24.540Z,98568.56
2023-09-25T11:30:52.734Z,98579.47
2023-09-25T11:33:21.789Z,98571.75
2023-09-25T11:35:53.895Z,98567.13
2023-09-25T11:38:24.786Z,98558.28
2023-09-25T11:40:53.933Z,98562.38
2023-09-25T11:43:21.197Z,98563.50
2023-09-25T11:45:49.592Z,98564.00
2023-09-25T11:48:19.532Z,98572.81
2023-09-25T11:50:48.015Z,98567.00
2023-09-25T11:53:14.896Z,98569.38
2023-09-25T11:55:41.583Z,98563.41
2023-09-25T11:58:10.379Z,98559.84
2023-09-25T12:00:37.991Z,98571.03
2023-09-25T12:03:09.630Z,98554.31
2023-09-25T12:05:37.378Z,98561.38
2023-09-25T12:08:07.954Z,98551.91
2023-09-25T12:10:40.697Z,98553.13
2023-09-25T12:13:08.634Z,98553.59
2023-09-25T12:15:35.885Z,98551.94
2023-09-25T12:18:04.742Z,98558.84
2023-09-25T12:20:31.643Z,98544.06
2023-09-25T12:22:58.294Z,98556.47
2023-09-25T12:25:26.153Z,98552.44
2023-09-25T12:27:53.794Z,98550.28
2023-09-25T12:30:21.078Z,98553.44
2023-09-25T12:32:49.186Z,98547.06
2023-09-25T12:35:17.667Z,98553.28
2023-09-25T12:37:45.143Z,98557.28
2023-09-25T12:40:14.413Z,98548.25
2023-09-25T12:42:54.071Z,98554.19
2023-09-25T12:45:22.778Z,98556.59
2023-09-25T12:47:49.996Z,98560.41
2023-09-25T12:50:16.669Z,98552.06
2023-09-25T12:52:43.346Z,98555.75
2023-09-25T12:55:10.421Z,98545.66
2023-09-25T12:57:37.398Z,98542.63
2023-09-25T13:00:06.162Z,98546.16
2023-09-25T13:02:33.359Z,98532.13
2023-09-25T13:05:00.241Z,98541.97
2023-09-25T13:07:27.067Z,98539.34
2023-09-25T13:09:53.809Z,98535.81
2023-09-25T13:12:20.544Z,98539.28
2023-09-25T13:14:47.221Z,98538.75
2023-09-25T13:17:14.032Z,98533.91
2023-09-25T13:19:43.420Z,98539.31
2023-09-25T13:22:28.899Z,98533.03
2023-09-25T13:25:00.221Z,98536.22
2023-09-25T13:27:28.225Z,98545.06
2023-09-25T13:29:54.815Z,98527.56
2023-09-25T13:32:21.604Z,98521.13
2023-09-25T13:34:48.359Z,98532.72
2023-09-25T13:37:15.019Z,98532.31
2023-09-25T13:39:41.762Z,98525.66
2023-09-25T13:42:08.396Z,98526.41
2023-09-25T13:44:36.036Z,98530.13
2023-09-25T13:47:03.156Z,98530.72
2023-09-25T13:49:30.240Z,98538.81
2023-09-25T13:51:58.208Z,98534.50
2023-09-25T13:54:24.984Z,98540.72
2023-09-25T13:56:51.791Z,98547.94
2023-09-25T13:59:18.975Z,98546.28
2023-09-25T14:01:48.694Z,98549.09
2023-09-25T14:04:17.190Z,98546.91
2023-09-25T14:06:45.873Z,98544.78
2023-09-25T14:09:13.549Z,98547.06
2023-09-25T14:11:40.784Z,98538.72
2023-09-25T14:14:09.545Z,98544.00
2023-09-25T14:16:36.784Z,98550.91
2023-09-25T14:19:05.377Z,98542.28
2023-09-25T14:21:32.249Z,98549.34
2023-09-25T14:23:59.106Z,98551.34
2023-09-25T14:26:25.848Z,98548.91
2023-09-25T14:28:53.142Z,98542.34
2023-09-25T14:31:19.803Z,98549.03
2023-09-25T14:33:46.614Z,98546.81
2023-09-25T14:36:13.414Z,98537.41
2023-09-25T14:38:40.413Z,98535.19
2023-09-25T14:41:07.299Z,98535.81
2023-09-25T14:43:35.225Z,98535.22
2023-09-25T14:46:02.171Z,98534.09
2023-09-25T14:48:29.290Z,98535.00
2023-09-25T14:50:57.678Z,98533.72
2023-09-25T14:53:24.548Z,98536.28
2023-09-25T14:55:57.479Z,98537.63
2023-09-25T14:58:24.625Z,98529.63
2023-09-25T15:01:00.882Z,98527.13
2023-09-25T15:03:28.711Z,98548.47
2023-09-25T15:05:55.821Z,98534.63
2023-09-25T15:08:26.804Z,98546.00
2023-09-25T15:10:54.763Z,98532.94
2023-09-25T15:13:22.061Z,98543.81
2023-09-25T15:15:51.956Z,98551.59
2023-09-25T15:18:19.191Z,98554.66
2023-09-25T15:20:45.898Z,98565.22
2023-09-25T15:23:12.632Z,98561.09
2023-09-25T15:25:39.367Z,98562.72
2023-09-25T15:28:06.947Z,98567.72
2023-09-25T15:30:34.006Z,98564.69
2023-09-25T15:33:00.850Z,98579.66
2023-09-25T15:35:28.092Z,98572.47
2023-09-25T15:37:55.026Z,98576.66
2023-09-25T15:40:24.440Z,98575.25
2023-09-25T15:42:52.737Z,98576.66
2023-09-25T15:45:20.336Z,98571.38
2023-09-25T15:47:47.309Z,98567.25
2023-09-25T15:50:14.321Z,98564.47
2023-09-25T15:52:41.038Z,98569.47
2023-09-25T15:55:08.193Z,98576.09
2023-09-25T15:57:35.063Z,98568.34
2023-09-25T16:00:01.905Z,98563.94
2023-09-25T16:02:28.595Z,98571.13
2023-09-25T16:04:55.494Z,98564.22
2023-09-25T16:07:22.271Z,98571.13
2023-09-25T16:09:48.903Z,98567.81
2023-09-25T16:12:15.640Z,98572.78
2023-09-25T16:14:42.493Z,98567.56
2023-09-25T16:17:11.806Z,98576.41
2023-09-25T16:19:38.668Z,98578.81
2023-09-25T16:22:05.400Z,98578.28
2023-09-25T16:24:32.121Z,98581.03
2023-09-25T16:26:59.125Z,98576.06
2023-09-25T16:29:25.930Z,98577.16
2023-09-25T16:31:52.721Z,98587.09
2023-09-25T16:34:19.433Z,98586.50
2023-09-25T16:36:46.248Z,98589.22
2023-09-25T16:39:13.448Z,98597.22
2023-09-25T16:41:41.394Z,98610.47
2023-09-25T16:44:08.081Z,98606.81
2023-09-25T16:46:35.351Z,98601.88
2023-09-25T16:49:02.850Z,98604.84
2023-09-25T16:51:29.751Z,98594.63
2023-09-25T16:53:56.428Z,98599.28
2023-09-25T16:56:23.564Z,98606.69
2023-09-25T16:58:50.268Z,98607.53
2023-09-25T17:01:17.211Z,98611.06
2023-09-25T17:03:44.182Z,98614.34
2023-09-25T17:06:11.137Z,98615.19
2023-09-25T17:08:38.100Z,98624.53
2023-09-25T17:11:04.789Z,98623.13
2023-09-25T17:13:31.497Z,98620.91
2023-09-25T17:15:59.083Z,98620.84
2023-09-25T17:18:25.936Z,98626.97
2023-09-25T17:20:53.379Z,98625.78
2023-09-25T17:23:21.027Z,98636.31
2023-09-25T17:25:49.182Z,98635.19
2023-09-25T17:28:15.977Z,98628.47
2023-09-25T17:30:54.941Z,98638.41
2023-09-25T17:33:29.787Z,98640.53
2023-09-25T17:35:56.415Z,98642.44
2023-09-25T17:38:24.026Z,98653.44
2023-09-25T17:40:51.872Z,98655.03
2023-09-25T17:43:19.237Z,98660.84
2023-09-25T17:45:46.044Z,98656.91
2023-09-25T17:48:12.873Z,98659.13
2023-09-25T17:50:39.464Z,98661.81
2023-09-25T17:53:06.185Z,98664.31
2023-09-25T17:55:32.803Z,98664.22
2023-09-25T17:57:59.438Z,98663.97
2023-09-25T18:00:26.226Z,98656.72
2023-09-25T18:02:52.929Z,98668.22
2023-09-25T18:05:19.737Z,98673.16
2023-09-25T18:07:46.596Z,98675.94
2023-09-25T18:10:13.288Z,98685.22
2023-09-25T18:12:42.948Z,98691.56
2023-09-25T18:15:11.645Z,98686.00
2023-09-25T18:17:38.451Z,98684.25
2023-09-25T18:20:05.755Z,98685.09
2023-09-25T18:22:33.624Z,98689.97
2023-09-25T18:25:01.674Z,98689.97
2023-09-25T18:27:30.956Z,98695.41
2023-09-25T18:29:57.796Z,98700.03
2023-09-25T18:32:24.523Z,98698.16
2023-09-25T18:34:51.228Z,98703.94
2023-09-25T18:37:17.895Z,98697.53
2023-09-25T18:39:44.500Z,98696.31
2023-09-25T18:42:11.372Z,98694.66
2023-09-25T18:44:38.643Z,98699.00
2023-09-25T18:47:05.543Z,98702.88
2023-09-25T18:49:32.198Z,98710.00
2023-09-25T18:51:58.919Z,98708.38
2023-09-25T18:54:26.222Z,98708.41
2023-09-25T18:56:54.169Z,98707.56
2023-09-25T18:59:20.941Z,98707.34
2023-09-25T19:01:47.647Z,98705.88
2023-09-25T19:04:14.560Z,98707.16
2023-09-25T19:06:41.282Z,98707.31
2023-09-25T19:09:08.138Z,98717.00
2023-09-25T19:11:34.893Z,98715.19
2023-09-25T19:14:01.579Z,98711.28
2023-09-25T19:16:28.782Z,98722.75
2023-09-25T19:19:00.038Z,98719.88
2023-09-25T19:21:29.845Z,98721.44
2023-09-25T19:23:57.562Z,98724.13
2023-09-25T19:26:27.064Z,98724.88
2023-09-25T19:28:55.972Z,98727.72
2023-09-25T19:31:38.182Z,98726.41
2023-09-25T19:34:08.020Z,98725.38
2023-09-25T19:36:36.787Z,98721.75
2023-09-25T19:39:03.847Z,98722.50
2023-09-25T19:41:30.568Z,98723.56
2023-09-25T19:43:57.276Z,98718.81
2023-09-25T19:46:24.074Z,98722.41
2023-09-25T19:48:51.158Z,98719.31
2023-09-25T19:51:17.932Z,98714.06
2023-09-25T19:53:44.630Z,98711.81
2023-09-25T19:56:11.448Z,98711.22
2023-09-25T19:58:38.079Z,98713.22
2023-09-25T20:01:12.025Z,98714.31
2023-09-25T20:03:39.130Z,98713.91
2023-09-25T20:06:06.289Z,98703.66
2023-09-25T20:08:33.309Z,98716.72
2023-09-25T20:11:00.836Z,98713.72
2023-09-25T20:13:27.547Z,98718.56
2023-09-25T20:15:54.742Z,98714.06
2023-09-25T20:18:22.540Z,98707.41
2023-09-25T20:20:59.297Z,98718.16
2023-09-25T20:23:26.908Z,98717.88
2023-09-25T20:25:54.290Z,98713.56
2023-09-25T20:28:21.396Z,98713.88
2023-09-25T20:30:48.408Z,98701.72
2023-09-25T20:33:15.355Z,98705.56
2023-09-25T20:35:42.363Z,98697.03
2023-09-25T20:38:09.040Z,98705.38
2023-09-25T20:40:35.841Z,98696.88
2023-09-25T20:43:02.612Z,98697.69
2023-09-25T20:45:29.307Z,98699.56
2023-09-25T20:47:57.542Z,98694.81
2023-09-25T20:50:28.231Z,98688.88
2023-09-25T20:52:56.035Z,98694.06
2023-09-25T20:55:23.668Z,98695.41
2023-09-25T20:57:51.109Z,98689.53
2023-09-25T21:00:18.993Z,98690.56
2023-09-25T21:02:45.792Z,98684.88
2023-09-25T21:05:13.484Z,98680.41
2023-09-25T21:07:40.220Z,98688.19
2023-09-25T21:10:07.714Z,98678.13
2023-09-25T21:12:34.888Z,98679.69
2023-09-25T21:15:01.701Z,98677.91
2023-09-25T21:17:29.788Z,98673.66
2023-09-25T21:19:56.479Z,98678.31
2023-09-25T21:22:23.140Z,98678.50
2023-09-25T21:24:52.890Z,98671.81
2023-09-25T21:27:19.750Z,98679.97
2023-09-25T21:29:46.514Z,98663.13
2023-09-25T21:32:14.461Z,98668.28
2023-09-25T21:34:41.350Z,98668.78
2023-09-25T21:37:08.050Z,98672.44
2023-09-25T21:39:34.699Z,98668.47
2023-09-25T21:42:01.364Z,98668.59
2023-09-25T21:44:30.869Z,98670.13
2023-09-25T21:46:58.177Z,98665.72
2023-09-25T21:49:24.916Z,98664.91
2023-09-25T21:51:51.620Z,98657.88
2023-09-25T21:54:18.265Z,98657.13
2023-09-25T21:56:44.889Z,98655.97
2023-09-25T21:59:11.564Z,98658.09
2023-09-25T22:01:38.284Z,98658.56
2023-09-25T22:04:05.739Z,98653.47
2023-09-25T22:06:33.355Z,98654.31
2023-09-25T22:08:59.981Z,98662.53
2023-09-25T22:11:26.623Z,98661.22
2023-09-25T22:13:55.443Z,98651.94
2023-09-25T22:16:23.404Z,98653.13
2023-09-25T22:18:50.357Z,98653.84
2023-09-25T22:21:17.207Z,98653.69
2023-09-25T22:23:44.590Z,98659.53
2023-09-25T22:26:12.423Z,98654.88
2023-09-25T22:28:44.060Z,98662.88
2023-09-25T22:31:18.994Z,98657.88
2023-09-25T22:33:47.783Z,98658.47
2023-09-25T22:36:14.802Z,98659.63
2023-09-25T22:38:41.751Z,98656.91
2023-09-25T22:41:08.506Z,98654.88
2023-09-25T22:43:35.391Z,98655.72
2023-09-25T22:46:02.486Z,98653.81
2023-09-25T22:48:31.574Z,98650.22
2023-09-25T22:50:58.444Z,98644.25
2023-09-25T22:53:25.385Z,98650.56
2023-09-25T22:55:52.058Z,98651.91
2023-09-25T22:58:18.794Z,98642.81
2023-09-25T23:00:51.432Z,98651.91
2023-09-25T23:03:18.554Z,98650.81
2023-09-25T23:05:45.501Z,98649.25
2023-09-25T23:08:12.604Z,98646.91
2023-09-25T23:10:39.253Z,98647.97
2023-09-25T23:13:05.948Z,98654.69
2023-09-25T23:15:32.644Z,98651.59
2023-09-25T23:17:59.931Z,98658.66
2023-09-25T23:20:28.081Z,98655.91
2023-09-25T23:22:58.059Z,98652.06
2023-09-25T23:25:27.615Z,98658.66
2023-09-25T23:27:54.994Z,98655.75
2023-09-25T23:30:23.111Z,98655.41
2023-09-25T23:33:13.469Z,98652.56
2023-09-25T23:35:42.894Z,98654.72
2023-09-25T23:38:09.653Z,98650.09
2023-09-25T23:40:36.275Z,98647.22
2023-09-25T23:43:03.004Z,98659.88
2023-09-25T23:45:29.709Z,98659.28
2023-09-25T23:47:56.381Z,98650.59
2023-09-25T23:50:23.362Z,98657.88
2023-09-25T23:52:54.475Z,98650.38
2023-09-25T23:55:21.399Z,98651.34
2023-09-25T23:57:48.313Z,98658.38
